Airport View

Enter AWOS ICAO identifier for current METAR.

ex. KFNL

KPWM 191851Z 000/00KT 10SM FEW035 BKN060 00/M05 A2956

19 Jan 2020 19:23

Phone: 207-874-7914

Other Area AWOS: KSFM - KLEW - KIWI

TAF KPWM 191721Z 1918/2018 31008KT P6SM BKN060 FM201300 33008KT P6SM SKC